createdAt,value
2023-01-11T00:00:26.590Z,33.80
2023-01-11T00:02:59.806Z,31.40
2023-01-11T00:05:26.368Z,34.40
2023-01-11T00:07:52.850Z,47.00
2023-01-11T00:10:19.983Z,41.25
2023-01-11T00:12:46.800Z,38.60
2023-01-11T00:15:13.625Z,34.00
2023-01-11T00:17:40.176Z,37.50
2023-01-11T00:20:06.861Z,36.25
2023-01-11T00:22:33.261Z,43.25
2023-01-11T00:24:59.656Z,36.75
2023-01-11T00:27:26.073Z,32.00
2023-01-11T00:29:52.536Z,36.50
2023-01-11T00:32:18.931Z,34.60
2023-01-11T00:34:45.336Z,38.80
2023-01-11T00:37:11.789Z,47.40
2023-01-11T00:39:38.240Z,30.80
2023-01-11T00:42:23.324Z,29.50
2023-01-11T00:45:08.253Z,32.40
2023-01-11T00:47:53.115Z,28.50
2023-01-11T00:50:19.612Z,27.67
2023-01-11T00:52:46.155Z,37.75
2023-01-11T00:55:12.571Z,40.00
2023-01-11T00:57:38.966Z,45.75
2023-01-11T01:00:05.765Z,38.50
2023-01-11T01:02:32.609Z,35.75
2023-01-11T01:04:59.935Z,29.50
2023-01-11T01:07:26.370Z,34.00
2023-01-11T01:09:52.774Z,35.80
2023-01-11T01:12:37.975Z,29.60
2023-01-11T01:15:04.564Z,32.80
2023-01-11T01:17:30.972Z,27.80
2023-01-11T01:19:57.460Z,30.00
2023-01-11T01:22:23.894Z,29.60
2023-01-11T01:24:50.287Z,35.25
2023-01-11T01:27:16.830Z,32.40
2023-01-11T01:29:43.651Z,35.80
2023-01-11T01:32:10.307Z,31.80
2023-01-11T01:34:37.616Z,35.75
2023-01-11T01:37:04.570Z,36.00
2023-01-11T01:39:31.157Z,40.40
2023-01-11T01:41:58.098Z,32.40
2023-01-11T01:44:43.290Z,38.20
2023-01-11T01:47:09.955Z,35.50
2023-01-11T01:49:36.987Z,29.25
2023-01-11T01:52:03.599Z,36.00
2023-01-11T01:54:32.556Z,29.40
2023-01-11T01:57:19.228Z,29.80
2023-01-11T01:59:51.612Z,33.00
2023-01-11T02:02:19.099Z,37.00
2023-01-11T02:04:47.028Z,32.75
2023-01-11T02:07:19.235Z,38.00
2023-01-11T02:09:57.553Z,37.00
2023-01-11T02:12:30.307Z,40.25
2023-01-11T02:14:59.501Z,37.40
2023-01-11T02:17:26.002Z,43.33
2023-01-11T02:19:52.566Z,33.80
2023-01-11T02:22:35.226Z,38.25
2023-01-11T02:25:20.281Z,38.00
2023-01-11T02:27:49.697Z,37.60
2023-01-11T02:30:45.393Z,35.75
2023-01-11T02:33:30.375Z,36.00
2023-01-11T02:35:56.771Z,43.60
2023-01-11T02:38:42.955Z,37.60
2023-01-11T02:41:12.428Z,38.50
2023-01-11T02:44:03.567Z,38.40
2023-01-11T02:46:34.149Z,42.20
2023-01-11T02:49:12.516Z,45.00
2023-01-11T02:51:47.171Z,30.40
2023-01-11T02:54:17.314Z,35.50
2023-01-11T02:56:45.597Z,47.40
2023-01-11T02:59:14.098Z,33.80
2023-01-11T03:01:47.192Z,37.25
2023-01-11T03:04:25.876Z,34.25
2023-01-11T03:07:11.701Z,35.80
2023-01-11T03:09:52.465Z,33.00
2023-01-11T03:12:37.326Z,31.60
2023-01-11T03:15:12.531Z,32.75
2023-01-11T03:17:51.942Z,27.25
2023-01-11T03:20:28.008Z,29.00
2023-01-11T03:23:12.879Z,36.25
2023-01-11T03:25:57.875Z,32.60
2023-01-11T03:28:30.277Z,31.00
2023-01-11T03:31:01.944Z,36.25
2023-01-11T03:33:34.614Z,40.40
2023-01-11T03:36:07.528Z,36.50
2023-01-11T03:38:40.267Z,34.00
2023-01-11T03:41:13.193Z,42.75
2023-01-11T03:43:41.234Z,34.75
2023-01-11T03:46:13.393Z,42.60
2023-01-11T03:48:42.684Z,39.00
2023-01-11T03:51:12.408Z,39.50
2023-01-11T03:53:40.330Z,39.00
2023-01-11T03:56:09.693Z,35.00
2023-01-11T03:58:36.463Z,31.75
2023-01-11T04:01:03.856Z,33.75
2023-01-11T04:03:30.424Z,40.25
2023-01-11T04:05:59.609Z,41.60
2023-01-11T04:08:26.116Z,29.50
2023-01-11T04:10:52.655Z,35.60
2023-01-11T04:13:19.053Z,34.20
2023-01-11T04:15:45.585Z,37.50
2023-01-11T04:18:12.069Z,32.25
2023-01-11T04:20:40.337Z,36.00
2023-01-11T04:23:08.255Z,34.80
2023-01-11T04:25:34.664Z,39.33
2023-01-11T04:28:01.072Z,36.50
2023-01-11T04:30:27.543Z,32.75
2023-01-11T04:32:53.954Z,31.75
2023-01-11T04:35:20.424Z,29.25
2023-01-11T04:37:46.848Z,29.00
2023-01-11T04:40:13.482Z,31.00
2023-01-11T04:42:39.875Z,28.80
2023-01-11T04:45:06.713Z,31.60
2023-01-11T04:47:33.102Z,30.80
2023-01-11T04:49:59.738Z,30.33
2023-01-11T04:52:26.162Z,37.00
2023-01-11T04:54:54.115Z,63.75
2023-01-11T04:57:20.872Z,84.50
2023-01-11T04:59:47.335Z,54.00
2023-01-11T05:02:14.229Z,48.50
2023-01-11T05:04:40.894Z,43.00
2023-01-11T05:07:08.284Z,47.25
2023-01-11T05:09:34.757Z,50.67
2023-01-11T05:12:01.209Z,48.00
2023-01-11T05:14:27.702Z,52.40
2023-01-11T05:16:54.198Z,41.25
2023-01-11T05:19:20.692Z,37.20
2023-01-11T05:21:47.151Z,43.75
2023-01-11T05:24:15.572Z,59.75
2023-01-11T05:26:43.865Z,70.00
2023-01-11T05:29:11.700Z,66.25
2023-01-11T05:31:39.197Z,67.75
2023-01-11T05:34:07.088Z,67.50
2023-01-11T05:36:34.235Z,56.25
2023-01-11T05:39:00.791Z,53.50
2023-01-11T05:41:27.599Z,43.67
2023-01-11T05:44:14.012Z,44.00
2023-01-11T05:46:41.486Z,35.20
2023-01-11T05:49:08.355Z,45.20
2023-01-11T05:51:35.355Z,43.40
2023-01-11T05:54:03.641Z,53.00
2023-01-11T05:56:30.151Z,46.00
2023-01-11T05:58:56.693Z,47.80
2023-01-11T06:01:23.927Z,60.50
2023-01-11T06:03:50.873Z,46.75
2023-01-11T06:06:17.970Z,42.25
2023-01-11T06:08:44.457Z,49.75
2023-01-11T06:11:10.938Z,77.00
2023-01-11T06:13:37.500Z,72.00
2023-01-11T06:16:09.520Z,72.00
2023-01-11T06:18:37.856Z,51.33
2023-01-11T06:21:04.828Z,43.25
2023-01-11T06:23:32.715Z,36.00
2023-01-11T06:26:02.652Z,31.50
2023-01-11T06:28:29.086Z,34.50
2023-01-11T06:30:56.105Z,35.00
2023-01-11T06:33:23.781Z,34.00
2023-01-11T06:35:50.625Z,37.50
2023-01-11T06:38:17.574Z,28.25
2023-01-11T06:40:44.426Z,30.25
2023-01-11T06:43:10.927Z,37.40
2023-01-11T06:45:38.496Z,36.80
2023-01-11T06:48:05.367Z,41.50
2023-01-11T06:50:31.871Z,36.25
2023-01-11T06:52:59.458Z,38.60
2023-01-11T06:55:26.859Z,46.75
2023-01-11T06:57:53.716Z,41.25
2023-01-11T07:00:20.727Z,36.60
2023-01-11T07:02:47.897Z,41.50
2023-01-11T07:05:15.706Z,49.00
2023-01-11T07:07:43.674Z,47.80
2023-01-11T07:10:12.056Z,55.00
2023-01-11T07:12:38.926Z,60.33
2023-01-11T07:15:06.608Z,59.20
2023-01-11T07:17:33.128Z,54.25
2023-01-11T07:19:59.610Z,53.00
2023-01-11T07:22:26.108Z,51.50
2023-01-11T07:24:52.609Z,56.25
2023-01-11T07:27:21.726Z,61.00
2023-01-11T07:29:48.226Z,62.20
2023-01-11T07:32:14.797Z,71.00
2023-01-11T07:34:41.330Z,77.00
2023-01-11T07:37:28.134Z,61.20
2023-01-11T07:39:55.765Z,53.00
2023-01-11T07:42:40.536Z,50.60
2023-01-11T07:45:07.308Z,48.50
2023-01-11T07:47:33.767Z,64.00
2023-01-11T07:50:00.242Z,70.75
2023-01-11T07:52:26.723Z,73.60
2023-01-11T07:54:53.179Z,81.00
2023-01-11T07:57:19.627Z,87.40
2023-01-11T07:59:46.227Z,68.25
2023-01-11T08:02:12.647Z,60.80
2023-01-11T08:04:39.140Z,59.75
2023-01-11T08:07:05.649Z,48.25
2023-01-11T08:09:32.160Z,51.50
2023-01-11T08:12:16.973Z,52.20
2023-01-11T08:14:43.705Z,40.80
2023-01-11T08:17:12.113Z,39.25
2023-01-11T08:19:38.777Z,38.50
2023-01-11T08:22:05.517Z,46.00
2023-01-11T08:24:32.370Z,46.00
2023-01-11T08:26:58.961Z,37.00
2023-01-11T08:29:25.833Z,38.25
2023-01-11T08:31:52.369Z,43.80
2023-01-11T08:34:18.959Z,46.00
2023-01-11T08:36:45.437Z,38.40
2023-01-11T08:39:12.004Z,46.60
2023-01-11T08:41:39.235Z,60.00
2023-01-11T08:44:05.963Z,57.00
2023-01-11T08:46:34.223Z,44.75
2023-01-11T08:49:01.513Z,37.75
2023-01-11T08:51:27.957Z,44.00
2023-01-11T08:53:54.632Z,38.00
2023-01-11T08:56:21.120Z,33.25
2023-01-11T08:58:47.603Z,29.60
2023-01-11T09:01:14.088Z,28.50
2023-01-11T09:03:40.539Z,28.33
2023-01-11T09:06:07.223Z,30.20
2023-01-11T09:08:33.670Z,36.40
2023-01-11T09:11:00.617Z,37.75
2023-01-11T09:13:27.526Z,47.40
2023-01-11T09:15:57.845Z,39.25
2023-01-11T09:18:26.924Z,31.60
2023-01-11T09:20:54.084Z,34.00
2023-01-11T09:23:20.578Z,42.50
2023-01-11T09:25:47.130Z,47.20
2023-01-11T09:28:13.574Z,75.25
2023-01-11T09:30:40.050Z,72.00
2023-01-11T09:33:07.036Z,49.60
2023-01-11T09:35:35.014Z,63.75
2023-01-11T09:38:02.618Z,60.00
2023-01-11T09:40:30.914Z,53.50
2023-01-11T09:43:01.369Z,62.80
2023-01-11T09:45:30.499Z,53.75
2023-01-11T09:48:11.638Z,45.50
2023-01-11T09:50:43.293Z,55.00
2023-01-11T09:53:17.258Z,33.00
2023-01-11T09:55:46.895Z,29.60
2023-01-11T09:58:32.640Z,33.00
2023-01-11T10:01:03.363Z,22.00
2023-01-11T10:03:29.894Z,36.75
2023-01-11T10:05:56.579Z,28.50
2023-01-11T10:18:25.385Z,17.20
2023-01-11T10:18:36.990Z,21.60
2023-01-11T10:20:43.837Z,21.00
2023-01-11T10:23:17.482Z,12.00
2023-01-11T10:25:51.715Z,19.50
2023-01-11T10:28:25.840Z,16.75
2023-01-11T10:30:57.737Z,16.20
2023-01-11T10:33:42.265Z,24.00
2023-01-11T10:36:29.348Z,24.40
2023-01-11T10:39:17.608Z,30.60
2023-01-11T10:42:01.464Z,23.40
2023-01-11T10:44:34.502Z,23.00
2023-01-11T10:47:02.229Z,25.50
2023-01-11T10:49:29.525Z,21.25
2023-01-11T10:51:58.930Z,19.75
2023-01-11T10:54:30.082Z,17.60
2023-01-11T10:57:16.031Z,18.60
2023-01-11T10:59:43.710Z,22.50
2023-01-11T11:02:23.398Z,17.00
2023-01-11T11:05:10.173Z,13.00
2023-01-11T11:07:40.720Z,17.50
2023-01-11T11:10:14.544Z,18.00
2023-01-11T11:12:46.261Z,11.00
2023-01-11T11:15:27.088Z,20.25
2023-01-11T11:17:54.185Z,12.00
2023-01-11T11:20:25.194Z,13.80
2023-01-11T11:22:53.144Z,17.00
2023-01-11T11:25:41.448Z,10.50
2023-01-11T11:28:09.045Z,13.60
2023-01-11T11:30:42.276Z,8.00
2023-01-11T11:33:17.824Z,18.25
2023-01-11T11:35:46.440Z,8.50
2023-01-11T11:38:23.359Z,8.00
2023-01-11T11:41:08.475Z,9.00
2023-01-11T11:43:38.465Z,18.00
2023-01-11T11:46:09.730Z,11.20
2023-01-11T11:48:36.321Z,17.00
2023-01-11T11:51:04.335Z,11.60
2023-01-11T11:53:55.709Z,17.00
2023-01-11T11:56:27.766Z,11.25
2023-01-11T11:58:54.865Z,15.00
2023-01-11T12:01:35.401Z,12.00
2023-01-11T12:04:14.110Z,12.60
2023-01-11T12:06:41.576Z,14.40
2023-01-11T12:09:27.512Z,18.40
2023-01-11T12:11:54.444Z,22.60
2023-01-11T12:14:35.285Z,17.60
2023-01-11T12:17:25.166Z,17.80
2023-01-11T12:19:51.739Z,14.75
2023-01-11T12:22:20.106Z,16.75
2023-01-11T12:24:47.354Z,16.00
2023-01-11T12:27:16.677Z,9.50
2023-01-11T12:29:44.870Z,5.00
2023-01-11T12:32:20.079Z,9.00
2023-01-11T12:34:46.581Z,9.00
2023-01-11T12:37:31.232Z,16.50
2023-01-11T12:40:03.797Z,7.00
2023-01-11T12:42:51.852Z,11.00
2023-01-11T12:45:26.878Z,14.40
2023-01-11T12:47:56.229Z,8.75
2023-01-11T12:50:29.063Z,9.75
2023-01-11T12:53:14.088Z,11.60
2023-01-11T12:55:46.234Z,9.00
2023-01-11T12:58:35.989Z,7.00
2023-01-11T13:01:12.870Z,5.00
2023-01-11T13:03:39.500Z,14.00
2023-01-11T13:06:09.151Z,16.25
2023-01-11T13:09:01.844Z,12.00
2023-01-11T13:11:37.279Z,8.00
2023-01-11T13:14:22.505Z,6.00
2023-01-11T13:17:07.647Z,9.50
2023-01-11T13:19:57.123Z,5.50
2023-01-11T13:22:28.193Z,7.50
2023-01-11T13:24:55.479Z,8.80
2023-01-11T13:27:23.247Z,10.00
2023-01-11T13:29:55.227Z,8.50
2023-01-11T13:32:24.332Z,8.25
2023-01-11T13:34:59.999Z,11.00
2023-01-11T13:37:26.479Z,9.00
2023-01-11T13:39:52.937Z,10.00
2023-01-11T13:42:25.139Z,9.80
2023-01-11T13:44:55.399Z,9.00
2023-01-11T13:47:34.222Z,12.00
2023-01-11T13:50:19.243Z,11.50
2023-01-11T13:52:54.209Z,15.50
2023-01-11T13:55:28.315Z,16.25
2023-01-11T13:58:03.845Z,10.50
2023-01-11T14:00:53.355Z,7.75
2023-01-11T14:03:31.980Z,9.00
2023-01-11T14:06:01.294Z,13.60
2023-01-11T14:08:35.678Z,11.50
2023-01-11T14:11:12.811Z,12.75
2023-01-11T14:14:18.226Z,9.00
2023-01-11T14:16:47.935Z,10.40
2023-01-11T14:19:32.944Z,12.80
2023-01-11T14:22:02.452Z,9.00
2023-01-11T14:24:31.005Z,8.80
2023-01-11T14:27:06.917Z,7.25
2023-01-11T14:29:49.691Z,11.40
2023-01-11T14:32:25.439Z,8.20
2023-01-11T14:34:58.777Z,8.40
2023-01-11T14:37:31.422Z,8.80
2023-01-11T14:40:16.525Z,8.20
2023-01-11T14:42:46.024Z,9.00
2023-01-11T14:45:21.279Z,7.40
2023-01-11T14:47:50.481Z,8.75
2023-01-11T14:50:19.728Z,11.00
2023-01-11T14:52:47.896Z,10.00
2023-01-11T14:55:16.687Z,11.00
2023-01-11T14:58:09.501Z,10.20
2023-01-11T15:00:35.904Z,13.80
2023-01-11T15:03:05.167Z,11.25
2023-01-11T15:05:31.653Z,8.00
2023-01-11T15:08:13.282Z,7.33
2023-01-11T15:10:45.126Z,13.00
2023-01-11T15:13:14.987Z,10.50
2023-01-11T15:16:00.201Z,14.00
2023-01-11T15:18:27.580Z,11.00
2023-01-11T15:20:58.798Z,18.40
2023-01-11T15:23:26.036Z,12.00
2023-01-11T15:26:00.124Z,16.75
2023-01-11T15:28:41.873Z,12.50
2023-01-11T15:31:27.754Z,11.00
2023-01-11T15:33:54.562Z,15.00
2023-01-11T15:36:24.551Z,16.00
2023-01-11T15:39:03.312Z,10.50
2023-01-11T15:41:57.560Z,11.00
2023-01-11T15:44:35.071Z,18.50
2023-01-11T15:47:19.991Z,10.00
2023-01-11T15:49:49.242Z,9.00
2023-01-11T15:52:15.676Z,13.00
2023-01-11T15:54:54.041Z,20.00
2023-01-11T15:57:32.531Z,17.20
2023-01-11T15:59:59.088Z,22.00
2023-01-11T16:02:40.688Z,23.75
2023-01-11T16:05:13.283Z,28.20
2023-01-11T16:07:42.480Z,32.75
2023-01-11T16:10:08.991Z,27.20
2023-01-11T16:12:38.601Z,31.50
2023-01-11T16:15:15.578Z,28.60
2023-01-11T16:17:42.669Z,41.00
2023-01-11T16:20:13.235Z,27.40
2023-01-11T16:22:39.705Z,28.50
2023-01-11T16:25:07.985Z,41.00
2023-01-11T16:27:34.955Z,39.00
2023-01-11T16:30:02.164Z,42.20
2023-01-11T16:32:32.907Z,37.20
2023-01-11T16:35:03.296Z,49.75
2023-01-11T16:37:29.737Z,56.00
2023-01-11T16:40:03.216Z,52.00
2023-01-11T16:42:32.329Z,57.00
2023-01-11T16:45:00.543Z,67.25
2023-01-11T16:47:27.009Z,68.75
2023-01-11T16:50:12.238Z,113.40
2023-01-11T16:52:41.316Z,62.00
2023-01-11T16:55:22.716Z,67.20
2023-01-11T16:57:54.146Z,72.20
2023-01-11T17:00:23.213Z,76.25
2023-01-11T17:03:00.173Z,67.60
2023-01-11T17:05:26.956Z,67.50
2023-01-11T17:07:53.431Z,56.40
2023-01-11T17:10:22.961Z,60.25
2023-01-11T17:13:31.363Z,58.00
2023-01-11T17:16:18.091Z,68.80
2023-01-11T17:18:44.705Z,70.80
2023-01-11T17:21:24.959Z,60.25
2023-01-11T17:23:53.015Z,57.00
2023-01-11T17:26:24.630Z,67.25
2023-01-11T17:28:52.751Z,57.75
2023-01-11T17:31:24.262Z,54.75
2023-01-11T17:34:20.579Z,67.00
2023-01-11T17:36:47.590Z,58.00
2023-01-11T17:39:18.565Z,62.60
2023-01-11T17:42:03.742Z,67.00
2023-01-11T17:44:48.855Z,68.75
2023-01-11T17:47:15.403Z,71.20
2023-01-11T17:49:41.854Z,62.50
2023-01-11T17:52:16.701Z,52.40
2023-01-11T17:54:43.274Z,54.60
2023-01-11T17:57:09.740Z,41.50
2023-01-11T17:59:36.400Z,50.00
2023-01-11T18:02:29.128Z,27.00
2023-01-11T18:04:59.861Z,36.00
2023-01-11T18:07:26.491Z,29.60
2023-01-11T18:09:58.132Z,23.50
2023-01-11T18:12:32.744Z,29.50
2023-01-11T18:15:00.925Z,28.40
2023-01-11T18:17:35.390Z,19.00
2023-01-11T18:20:22.117Z,16.00
2023-01-11T18:22:59.069Z,16.50
2023-01-11T18:25:26.766Z,18.00
2023-01-11T18:28:14.137Z,22.60
2023-01-11T18:30:53.716Z,20.00
2023-01-11T18:33:23.119Z,31.20
2023-01-11T18:35:51.409Z,30.80
2023-01-11T18:38:21.573Z,35.00
2023-01-11T18:40:49.347Z,33.75
2023-01-11T18:43:17.742Z,49.00
2023-01-11T18:45:44.932Z,33.00
2023-01-11T18:48:12.150Z,29.60
2023-01-11T18:50:39.340Z,32.25
2023-01-11T18:53:05.757Z,37.25
2023-01-11T18:55:32.394Z,21.00
2023-01-11T18:57:58.848Z,30.00
2023-01-11T19:00:25.352Z,31.80
2023-01-11T19:05:23.228Z,18.80
2023-01-11T19:07:50.074Z,23.67
2023-01-11T19:10:17.743Z,26.20
2023-01-11T19:12:44.781Z,18.00
2023-01-11T19:15:12.083Z,22.50
2023-01-11T19:17:38.659Z,19.60
2023-01-11T19:20:05.520Z,41.80
2023-01-11T19:22:32.172Z,27.20
2023-01-11T19:24:58.653Z,21.00
2023-01-11T19:27:25.188Z,15.20
2023-01-11T19:29:52.889Z,27.60
2023-01-11T19:32:23.662Z,37.80
2023-01-11T19:34:51.020Z,41.20
2023-01-11T19:37:17.897Z,53.00
2023-01-11T19:39:44.371Z,25.80
2023-01-11T19:42:10.851Z,48.40
2023-01-11T19:44:40.805Z,46.00
2023-01-11T19:47:13.160Z,32.80
2023-01-11T19:49:40.578Z,41.50
2023-01-11T19:52:13.465Z,43.20
2023-01-11T19:54:42.108Z,49.20
2023-01-11T19:57:10.025Z,26.20
2023-01-11T19:59:36.496Z,44.00
2023-01-11T20:02:03.010Z,32.00
2023-01-11T20:04:29.542Z,49.75
2023-01-11T20:06:56.622Z,28.80
2023-01-11T20:09:23.123Z,42.00
2023-01-11T20:11:49.743Z,45.25
2023-01-11T20:14:16.896Z,51.00
2023-01-11T20:16:43.613Z,28.50
2023-01-11T20:19:10.447Z,24.00
2023-01-11T20:21:36.987Z,27.00
2023-01-11T20:24:03.779Z,31.00
2023-01-11T20:26:31.479Z,22.40
2023-01-11T20:28:58.399Z,22.75
2023-01-11T20:31:28.534Z,31.20
2023-01-11T20:33:55.654Z,24.00
2023-01-11T20:36:22.863Z,20.00
2023-01-11T20:38:49.593Z,21.20
2023-01-11T20:41:36.135Z,23.00
2023-01-11T20:44:02.877Z,21.25
2023-01-11T20:46:29.434Z,28.50
2023-01-11T20:48:55.992Z,28.60
2023-01-11T20:51:22.620Z,19.20
2023-01-11T20:53:49.078Z,18.00
2023-01-11T20:56:15.619Z,10.40
2023-01-11T20:58:42.085Z,11.60
2023-01-11T21:01:10.518Z,12.50
2023-01-11T21:03:37.042Z,14.60
2023-01-11T21:06:04.505Z,13.00
2023-01-11T21:08:30.958Z,14.20
2023-01-11T21:10:57.655Z,27.00
2023-01-11T21:13:24.163Z,12.25
2023-01-11T21:15:50.657Z,13.00
2023-01-11T21:18:17.106Z,15.00
2023-01-11T21:20:47.394Z,13.80
2023-01-11T21:23:15.350Z,8.20
2023-01-11T21:25:41.766Z,7.20
2023-01-11T21:28:08.671Z,8.50
2023-01-11T21:30:35.155Z,14.00
2023-01-11T21:33:01.639Z,10.80
2023-01-11T21:35:28.102Z,13.75
2023-01-11T21:37:54.536Z,9.60
2023-01-11T21:40:21.023Z,12.00
2023-01-11T21:42:47.576Z,7.00
2023-01-11T21:45:14.082Z,8.00
2023-01-11T21:47:43.658Z,15.00
2023-01-11T21:50:10.599Z,14.00
2023-01-11T21:52:37.083Z,9.00
2023-01-11T21:55:03.627Z,10.60
2023-01-11T21:57:30.112Z,8.00
2023-01-11T21:59:56.550Z,16.00
2023-01-11T22:02:23.028Z,10.00
2023-01-11T22:04:53.146Z,11.00
2023-01-11T22:07:19.561Z,11.33
2023-01-11T22:10:03.474Z,9.00
2023-01-11T22:12:30.868Z,14.50
2023-01-11T22:14:57.293Z,11.00
2023-01-11T22:17:23.754Z,10.40
2023-01-11T22:19:50.292Z,11.00
2023-01-11T22:22:16.785Z,10.00
2023-01-11T22:24:43.325Z,10.00
2023-01-11T22:27:09.823Z,8.00
2023-01-11T22:29:37.460Z,10.00
2023-01-11T22:32:04.451Z,11.25
2023-01-11T22:34:31.150Z,5.50
2023-01-11T22:36:57.907Z,7.00
2023-01-11T22:39:24.866Z,6.00
2023-01-11T22:41:51.579Z,5.80
2023-01-11T22:44:18.055Z,11.50
2023-01-11T22:46:44.997Z,7.20
2023-01-11T22:49:11.741Z,7.50
2023-01-11T22:51:39.395Z,6.00
2023-01-11T22:54:05.920Z,9.00
2023-01-11T22:56:32.488Z,10.40
2023-01-11T22:58:59.490Z,7.00
2023-01-11T23:01:27.495Z,8.00
2023-01-11T23:03:55.313Z,9.50
2023-01-11T23:06:26.345Z,7.00
2023-01-11T23:08:53.297Z,8.00
2023-01-11T23:11:39.787Z,8.00
2023-01-11T23:14:08.482Z,7.80
2023-01-11T23:16:35.491Z,10.25
2023-01-11T23:19:02.512Z,8.00
2023-01-11T23:21:29.194Z,6.00
2023-01-11T23:23:55.667Z,7.60
2023-01-11T23:26:22.259Z,5.00
2023-01-11T23:28:49.671Z,5.40
2023-01-11T23:31:17.935Z,15.00
2023-01-11T23:33:45.568Z,5.00
2023-01-11T23:36:12.497Z,6.00
2023-01-11T23:38:39.106Z,8.80
2023-01-11T23:41:24.916Z,5.00
2023-01-11T23:43:51.719Z,10.00
2023-01-11T23:46:37.164Z,9.40
2023-01-11T23:49:04.622Z,10.00
2023-01-11T23:51:31.294Z,12.00
2023-01-11T23:53:57.777Z,10.40
2023-01-11T23:56:24.253Z,11.00
2023-01-11T23:58:50.802Z,8.25
